South New Berlin, NY (13843)

7:58 AM EDT on August 24, 2016 (GMT -0400)
Home Acres Farm | | Change Station

Elev 1424 ft 42.49 °N, 75.34 °W | Updated 21 seconds ago

Clear
Clear
52.0 °F
Feels Like 52.0 °F
N
0.0
Wind Variable Wind from SSW
Gusts 0.0 mph

Today
High -- | Low -- °F
--% Chance of Precip.
Yesterday
High -- | Low -- °F
Precip. -- in
Pressure 30.30 in
Visibility 10.0 miles
Clouds Clear
Dew Point 46 °F
Humidity 79%
Rainfall 0.00 in
Snow Depth Not available.
6:18 AM 7:48 PM
Waning Gibbous, 57% visible
METAR KBGM 241153Z 17003KT 10SM CLR 16/14 A3032 RMK AO2 SLP261 T01560139 10172 20139 52013
Pressure 30.30 in
Visibility 10.0 miles
Clouds Clear
Dew Point 46 °F
Humidity 79%
Rainfall 0.00 in
Snow Depth Not available.
6:18 AM 7:48 PM
Waning Gibbous, 57% visible
METAR KBGM 241153Z 17003KT 10SM CLR 16/14 A3032 RMK AO2 SLP261 T01560139 10172 20139 52013

10-Day Weather Forecast

Almanac

Astronomy

Aug. 24, 2016 Rise Set
Actual Time
Civil Twilight
Nautical Twilight
Astronomical Twilight
Moon
Length of Visible Light
Length of Day
Tomorrow will be .
, % of the Moon is Illuminated

Today's Extremes

State Highs State Lows

Community

WunderPhotos

Upload Photos

1,934,571 photos uploaded!

WunderBlog® & News

Nearby

Air Quality

  Air Quality AQ Index Pollutant
Not available.

Snow Depth

Station Depth Elevation

Earthquake Activity

City Distance Mag. Time & Date
Minimum magnitude displayed is 2.5.

Coastal Water Temperatures

Place Temperature

Stations

Nearby Weather Stations

Station Location Temp. Windchill Dew Point Humidity Wind Precip. Elev Updated Type
                   

Watches & Warnings

There are currently no watches in effect.